sensor_id;sensor_type;location;lat;lon;timestamp;temperature;humidity
32201;DHT22;18701;45.588;5.288;2023-03-14T00:00:52;13.10;99.90
32201;DHT22;18701;45.588;5.288;2023-03-14T00:03:18;13.20;99.90
32201;DHT22;18701;45.588;5.288;2023-03-14T00:05:44;12.90;99.90
32201;DHT22;18701;45.588;5.288;2023-03-14T00:08:09;13.10;99.90
32201;DHT22;18701;45.588;5.288;2023-03-14T00:10:38;13.30;99.90
32201;DHT22;18701;45.588;5.288;2023-03-14T00:13:04;12.90;99.90
32201;DHT22;18701;45.588;5.288;2023-03-14T00:15:31;13.10;99.90
32201;DHT22;18701;45.588;5.288;2023-03-14T00:17:57;12.90;99.90
32201;DHT22;18701;45.588;5.288;2023-03-14T00:20:22;13.10;99.90
32201;DHT22;18701;45.588;5.288;2023-03-14T00:22:48;13.00;99.90
32201;DHT22;18701;45.588;5.288;2023-03-14T00:25:13;12.90;99.90
32201;DHT22;18701;45.588;5.288;2023-03-14T00:27:39;12.90;99.90
32201;DHT22;18701;45.588;5.288;2023-03-14T00:30:05;12.70;99.90
32201;DHT22;18701;45.588;5.288;2023-03-14T00:32:33;12.90;99.90
32201;DHT22;18701;45.588;5.288;2023-03-14T00:34:58;13.00;99.90
32201;DHT22;18701;45.588;5.288;2023-03-14T00:37:26;12.80;99.90
32201;DHT22;18701;45.588;5.288;2023-03-14T00:39:52;12.60;99.90
32201;DHT22;18701;45.588;5.288;2023-03-14T00:42:17;12.70;99.90
32201;DHT22;18701;45.588;5.288;2023-03-14T00:44:43;12.70;99.90
32201;DHT22;18701;45.588;5.288;2023-03-14T00:47:09;12.60;99.90
32201;DHT22;18701;45.588;5.288;2023-03-14T00:49:34;12.90;99.90
32201;DHT22;18701;45.588;5.288;2023-03-14T00:52:00;13.10;99.90
32201;DHT22;18701;45.588;5.288;2023-03-14T00:54:26;13.10;99.90
32201;DHT22;18701;45.588;5.288;2023-03-14T00:56:52;13.30;99.90
32201;DHT22;18701;45.588;5.288;2023-03-14T00:59:18;13.30;99.90
32201;DHT22;18701;45.588;5.288;2023-03-14T01:01:44;13.10;99.90
32201;DHT22;18701;45.588;5.288;2023-03-14T01:04:10;13.00;99.90
32201;DHT22;18701;45.588;5.288;2023-03-14T01:06:36;13.10;99.90
32201;DHT22;18701;45.588;5.288;2023-03-14T01:09:02;12.90;99.90
32201;DHT22;18701;45.588;5.288;2023-03-14T01:11:31;13.00;99.90
32201;DHT22;18701;45.588;5.288;2023-03-14T01:13:57;13.10;99.90
32201;DHT22;18701;45.588;5.288;2023-03-14T01:16:26;13.20;99.90
32201;DHT22;18701;45.588;5.288;2023-03-14T01:18:52;13.30;99.90
32201;DHT22;18701;45.588;5.288;2023-03-14T01:21:23;13.20;99.90
32201;DHT22;18701;45.588;5.288;2023-03-14T01:23:50;13.10;99.90
32201;DHT22;18701;45.588;5.288;2023-03-14T01:26:18;13.20;99.90
32201;DHT22;18701;45.588;5.288;2023-03-14T01:28:49;13.20;99.90
32201;DHT22;18701;45.588;5.288;2023-03-14T01:31:15;13.10;99.90
32201;DHT22;18701;45.588;5.288;2023-03-14T01:33:41;13.10;99.90
32201;DHT22;18701;45.588;5.288;2023-03-14T01:36:08;13.10;99.90
32201;DHT22;18701;45.588;5.288;2023-03-14T01:38:35;13.00;99.90
32201;DHT22;18701;45.588;5.288;2023-03-14T01:41:02;13.10;99.90
32201;DHT22;18701;45.588;5.288;2023-03-14T01:43:28;13.00;99.90
32201;DHT22;18701;45.588;5.288;2023-03-14T01:46:26;13.00;99.90
32201;DHT22;18701;45.588;5.288;2023-03-14T01:48:57;13.00;99.90
32201;DHT22;18701;45.588;5.288;2023-03-14T01:51:31;13.00;99.90
32201;DHT22;18701;45.588;5.288;2023-03-14T01:54:25;12.80;99.90
32201;DHT22;18701;45.588;5.288;2023-03-14T01:56:59;12.80;99.90
32201;DHT22;18701;45.588;5.288;2023-03-14T01:59:29;12.80;99.90
32201;DHT22;18701;45.588;5.288;2023-03-14T02:01:57;12.70;99.90
32201;DHT22;18701;45.588;5.288;2023-03-14T02:04:23;12.90;99.90
32201;DHT22;18701;45.588;5.288;2023-03-14T02:09:39;13.00;99.90
32201;DHT22;18701;45.588;5.288;2023-03-14T02:12:06;12.80;99.90
32201;DHT22;18701;45.588;5.288;2023-03-14T02:14:34;13.00;99.90
32201;DHT22;18701;45.588;5.288;2023-03-14T02:17:02;13.00;99.90
32201;DHT22;18701;45.588;5.288;2023-03-14T02:22:24;12.80;99.90
32201;DHT22;18701;45.588;5.288;2023-03-14T02:27:25;12.70;99.90
32201;DHT22;18701;45.588;5.288;2023-03-14T02:30:04;12.90;99.90
32201;DHT22;18701;45.588;5.288;2023-03-14T02:32:33;12.90;99.90
32201;DHT22;18701;45.588;5.288;2023-03-14T02:35:04;12.80;99.90
32201;DHT22;18701;45.588;5.288;2023-03-14T02:37:55;12.90;99.90
32201;DHT22;18701;45.588;5.288;2023-03-14T02:40:21;12.70;99.90
32201;DHT22;18701;45.588;5.288;2023-03-14T02:42:47;12.40;99.90
32201;DHT22;18701;45.588;5.288;2023-03-14T02:47:54;12.40;99.90
32201;DHT22;18701;45.588;5.288;2023-03-14T02:50:22;12.40;99.90
32201;DHT22;18701;45.588;5.288;2023-03-14T02:52:48;12.70;99.90
32201;DHT22;18701;45.588;5.288;2023-03-14T02:55:13;12.40;99.90
32201;DHT22;18701;45.588;5.288;2023-03-14T02:57:39;12.40;99.90
32201;DHT22;18701;45.588;5.288;2023-03-14T03:00:05;12.40;99.90
32201;DHT22;18701;45.588;5.288;2023-03-14T03:02:31;12.40;99.90
32201;DHT22;18701;45.588;5.288;2023-03-14T03:04:57;12.10;99.90
32201;DHT22;18701;45.588;5.288;2023-03-14T03:07:23;12.10;99.90
32201;DHT22;18701;45.588;5.288;2023-03-14T03:09:49;12.10;99.90
32201;DHT22;18701;45.588;5.288;2023-03-14T03:12:15;12.10;99.90
32201;DHT22;18701;45.588;5.288;2023-03-14T03:14:40;12.10;99.90
32201;DHT22;18701;45.588;5.288;2023-03-14T03:17:06;12.10;99.90
32201;DHT22;18701;45.588;5.288;2023-03-14T03:19:33;12.20;99.90
32201;DHT22;18701;45.588;5.288;2023-03-14T03:21:58;12.00;99.90
32201;DHT22;18701;45.588;5.288;2023-03-14T03:24:25;12.10;99.90
32201;DHT22;18701;45.588;5.288;2023-03-14T03:26:51;11.90;99.90
32201;DHT22;18701;45.588;5.288;2023-03-14T03:29:17;11.80;99.90
32201;DHT22;18701;45.588;5.288;2023-03-14T03:31:42;11.90;99.90
32201;DHT22;18701;45.588;5.288;2023-03-14T03:34:11;12.10;99.90
32201;DHT22;18701;45.588;5.288;2023-03-14T03:36:36;12.10;99.90
32201;DHT22;18701;45.588;5.288;2023-03-14T03:39:02;12.20;99.90
32201;DHT22;18701;45.588;5.288;2023-03-14T03:41:29;12.10;99.90
32201;DHT22;18701;45.588;5.288;2023-03-14T03:43:54;12.20;99.90
32201;DHT22;18701;45.588;5.288;2023-03-14T03:46:20;12.30;99.90
32201;DHT22;18701;45.588;5.288;2023-03-14T03:48:46;12.20;99.90
32201;DHT22;18701;45.588;5.288;2023-03-14T03:51:15;12.30;99.90
32201;DHT22;18701;45.588;5.288;2023-03-14T03:53:42;12.20;99.90
32201;DHT22;18701;45.588;5.288;2023-03-14T03:56:09;12.30;99.90
32201;DHT22;18701;45.588;5.288;2023-03-14T03:58:34;12.30;99.90
32201;DHT22;18701;45.588;5.288;2023-03-14T04:01:00;12.20;99.90
32201;DHT22;18701;45.588;5.288;2023-03-14T04:03:26;12.20;99.90
32201;DHT22;18701;45.588;5.288;2023-03-14T04:06:12;12.30;99.90
32201;DHT22;18701;45.588;5.288;2023-03-14T04:08:38;12.30;99.90
32201;DHT22;18701;45.588;5.288;2023-03-14T04:11:06;12.30;99.90
32201;DHT22;18701;45.588;5.288;2023-03-14T04:13:31;12.20;99.90
32201;DHT22;18701;45.588;5.288;2023-03-14T04:15:57;12.30;99.90
32201;DHT22;18701;45.588;5.288;2023-03-14T04:18:23;12.30;99.90
32201;DHT22;18701;45.588;5.288;2023-03-14T04:20:55;12.10;99.90
32201;DHT22;18701;45.588;5.288;2023-03-14T04:23:22;12.10;99.90
32201;DHT22;18701;45.588;5.288;2023-03-14T04:25:52;12.40;99.90
32201;DHT22;18701;45.588;5.288;2023-03-14T04:28:18;12.30;99.90
32201;DHT22;18701;45.588;5.288;2023-03-14T04:30:44;12.10;99.90
32201;DHT22;18701;45.588;5.288;2023-03-14T04:33:09;12.20;99.90
32201;DHT22;18701;45.588;5.288;2023-03-14T04:35:36;12.00;99.90
32201;DHT22;18701;45.588;5.288;2023-03-14T04:38:01;12.10;99.90
32201;DHT22;18701;45.588;5.288;2023-03-14T04:40:28;12.10;99.90
32201;DHT22;18701;45.588;5.288;2023-03-14T04:42:53;12.20;99.90
32201;DHT22;18701;45.588;5.288;2023-03-14T04:45:19;12.10;99.90
32201;DHT22;18701;45.588;5.288;2023-03-14T04:47:44;12.00;99.90
32201;DHT22;18701;45.588;5.288;2023-03-14T04:50:11;12.20;99.90
32201;DHT22;18701;45.588;5.288;2023-03-14T04:52:36;12.10;99.90
32201;DHT22;18701;45.588;5.288;2023-03-14T04:55:02;12.20;99.90
32201;DHT22;18701;45.588;5.288;2023-03-14T04:57:28;11.90;99.90
32201;DHT22;18701;45.588;5.288;2023-03-14T04:59:53;12.00;99.90
32201;DHT22;18701;45.588;5.288;2023-03-14T05:02:19;12.00;99.90
32201;DHT22;18701;45.588;5.288;2023-03-14T05:04:44;12.00;99.90
32201;DHT22;18701;45.588;5.288;2023-03-14T05:07:10;11.90;99.90
32201;DHT22;18701;45.588;5.288;2023-03-14T05:09:36;11.90;99.90
32201;DHT22;18701;45.588;5.288;2023-03-14T05:12:01;12.00;99.90
32201;DHT22;18701;45.588;5.288;2023-03-14T05:14:27;12.00;99.90
32201;DHT22;18701;45.588;5.288;2023-03-14T05:16:53;11.90;99.90
32201;DHT22;18701;45.588;5.288;2023-03-14T05:19:18;11.60;99.90
32201;DHT22;18701;45.588;5.288;2023-03-14T05:21:44;11.70;99.90
32201;DHT22;18701;45.588;5.288;2023-03-14T05:24:10;11.80;99.90
32201;DHT22;18701;45.588;5.288;2023-03-14T05:26:35;11.90;99.90
32201;DHT22;18701;45.588;5.288;2023-03-14T05:29:01;11.60;99.90
32201;DHT22;18701;45.588;5.288;2023-03-14T05:31:27;11.80;99.90
32201;DHT22;18701;45.588;5.288;2023-03-14T05:33:52;11.80;99.90
32201;DHT22;18701;45.588;5.288;2023-03-14T05:36:18;11.80;99.90
32201;DHT22;18701;45.588;5.288;2023-03-14T05:38:44;11.70;99.90
32201;DHT22;18701;45.588;5.288;2023-03-14T05:41:09;11.50;99.90
32201;DHT22;18701;45.588;5.288;2023-03-14T05:43:35;11.50;99.90
32201;DHT22;18701;45.588;5.288;2023-03-14T05:46:00;11.70;99.90
32201;DHT22;18701;45.588;5.288;2023-03-14T05:48:26;11.40;99.90
32201;DHT22;18701;45.588;5.288;2023-03-14T05:50:58;11.60;99.90
32201;DHT22;18701;45.588;5.288;2023-03-14T05:53:25;11.30;99.90
32201;DHT22;18701;45.588;5.288;2023-03-14T05:55:54;11.40;99.90
32201;DHT22;18701;45.588;5.288;2023-03-14T05:58:20;11.30;99.90
32201;DHT22;18701;45.588;5.288;2023-03-14T06:00:47;11.50;99.90
32201;DHT22;18701;45.588;5.288;2023-03-14T06:03:12;11.30;99.90
32201;DHT22;18701;45.588;5.288;2023-03-14T06:05:38;11.30;99.90
32201;DHT22;18701;45.588;5.288;2023-03-14T06:08:04;11.10;99.90
32201;DHT22;18701;45.588;5.288;2023-03-14T06:10:29;11.20;99.90
32201;DHT22;18701;45.588;5.288;2023-03-14T06:12:55;11.20;99.90
32201;DHT22;18701;45.588;5.288;2023-03-14T06:15:21;11.20;99.90
32201;DHT22;18701;45.588;5.288;2023-03-14T06:17:47;11.20;99.90
32201;DHT22;18701;45.588;5.288;2023-03-14T06:20:12;11.10;99.90
32201;DHT22;18701;45.588;5.288;2023-03-14T06:22:38;11.20;99.90
32201;DHT22;18701;45.588;5.288;2023-03-14T06:25:05;11.20;99.90
32201;DHT22;18701;45.588;5.288;2023-03-14T06:27:31;11.30;99.90
32201;DHT22;18701;45.588;5.288;2023-03-14T06:29:56;11.20;99.90
32201;DHT22;18701;45.588;5.288;2023-03-14T06:32:22;11.20;99.90
32201;DHT22;18701;45.588;5.288;2023-03-14T06:34:47;11.20;99.90
32201;DHT22;18701;45.588;5.288;2023-03-14T06:37:13;11.20;99.90
32201;DHT22;18701;45.588;5.288;2023-03-14T06:39:39;11.10;99.90
32201;DHT22;18701;45.588;5.288;2023-03-14T06:42:05;11.10;99.90
32201;DHT22;18701;45.588;5.288;2023-03-14T06:44:31;11.20;99.90
32201;DHT22;18701;45.588;5.288;2023-03-14T06:46:56;11.10;99.90
32201;DHT22;18701;45.588;5.288;2023-03-14T06:49:22;11.10;99.90
32201;DHT22;18701;45.588;5.288;2023-03-14T06:51:47;11.10;99.90
32201;DHT22;18701;45.588;5.288;2023-03-14T06:54:13;11.10;99.90
32201;DHT22;18701;45.588;5.288;2023-03-14T06:56:39;11.00;99.90
32201;DHT22;18701;45.588;5.288;2023-03-14T06:59:04;10.90;99.90
32201;DHT22;18701;45.588;5.288;2023-03-14T07:01:30;11.00;99.90
32201;DHT22;18701;45.588;5.288;2023-03-14T07:03:58;10.90;99.90
32201;DHT22;18701;45.588;5.288;2023-03-14T07:06:23;10.70;99.90
32201;DHT22;18701;45.588;5.288;2023-03-14T07:08:50;10.80;99.90
32201;DHT22;18701;45.588;5.288;2023-03-14T07:11:16;10.80;99.90
32201;DHT22;18701;45.588;5.288;2023-03-14T07:13:41;10.70;99.90
32201;DHT22;18701;45.588;5.288;2023-03-14T07:16:07;10.70;99.90
32201;DHT22;18701;45.588;5.288;2023-03-14T07:18:34;10.70;99.90
32201;DHT22;18701;45.588;5.288;2023-03-14T07:20:59;10.70;99.90
32201;DHT22;18701;45.588;5.288;2023-03-14T07:23:25;10.50;99.90
32201;DHT22;18701;45.588;5.288;2023-03-14T07:25:51;10.70;99.90
32201;DHT22;18701;45.588;5.288;2023-03-14T07:28:18;10.70;99.90
32201;DHT22;18701;45.588;5.288;2023-03-14T07:30:46;10.70;99.90
32201;DHT22;18701;45.588;5.288;2023-03-14T07:33:12;10.60;99.90
32201;DHT22;18701;45.588;5.288;2023-03-14T07:35:37;10.60;99.90
32201;DHT22;18701;45.588;5.288;2023-03-14T07:38:03;10.50;99.90
32201;DHT22;18701;45.588;5.288;2023-03-14T07:40:29;10.50;99.90
32201;DHT22;18701;45.588;5.288;2023-03-14T07:42:55;10.50;99.90
32201;DHT22;18701;45.588;5.288;2023-03-14T07:45:20;10.50;99.90
32201;DHT22;18701;45.588;5.288;2023-03-14T07:47:46;10.40;99.90
32201;DHT22;18701;45.588;5.288;2023-03-14T07:50:12;10.50;99.90
32201;DHT22;18701;45.588;5.288;2023-03-14T07:52:37;10.60;99.90
32201;DHT22;18701;45.588;5.288;2023-03-14T07:55:03;10.50;99.90
32201;DHT22;18701;45.588;5.288;2023-03-14T07:57:29;10.40;99.90
32201;DHT22;18701;45.588;5.288;2023-03-14T07:59:55;10.40;99.90
32201;DHT22;18701;45.588;5.288;2023-03-14T08:02:20;10.50;99.90
32201;DHT22;18701;45.588;5.288;2023-03-14T08:04:48;10.60;99.90
32201;DHT22;18701;45.588;5.288;2023-03-14T08:07:14;10.50;99.90
32201;DHT22;18701;45.588;5.288;2023-03-14T08:09:39;10.60;99.90
32201;DHT22;18701;45.588;5.288;2023-03-14T08:12:05;10.50;99.90
32201;DHT22;18701;45.588;5.288;2023-03-14T08:14:31;10.40;99.90
32201;DHT22;18701;45.588;5.288;2023-03-14T08:16:57;10.30;99.90
32201;DHT22;18701;45.588;5.288;2023-03-14T08:19:23;10.40;99.90
32201;DHT22;18701;45.588;5.288;2023-03-14T08:21:50;10.50;99.90
32201;DHT22;18701;45.588;5.288;2023-03-14T08:24:15;10.40;99.90
32201;DHT22;18701;45.588;5.288;2023-03-14T08:26:41;10.30;99.90
32201;DHT22;18701;45.588;5.288;2023-03-14T08:29:07;10.50;99.90
32201;DHT22;18701;45.588;5.288;2023-03-14T08:31:34;10.50;99.90
32201;DHT22;18701;45.588;5.288;2023-03-14T08:34:01;10.50;99.90
32201;DHT22;18701;45.588;5.288;2023-03-14T08:36:27;10.60;99.90
32201;DHT22;18701;45.588;5.288;2023-03-14T08:38:53;10.60;99.90
32201;DHT22;18701;45.588;5.288;2023-03-14T08:41:19;10.60;99.90
32201;DHT22;18701;45.588;5.288;2023-03-14T08:43:45;10.60;99.90
32201;DHT22;18701;45.588;5.288;2023-03-14T08:46:11;10.80;99.90
32201;DHT22;18701;45.588;5.288;2023-03-14T08:48:37;10.80;99.90
32201;DHT22;18701;45.588;5.288;2023-03-14T08:51:10;10.80;99.90
32201;DHT22;18701;45.588;5.288;2023-03-14T08:53:38;10.90;99.90
32201;DHT22;18701;45.588;5.288;2023-03-14T08:56:04;10.90;99.90
32201;DHT22;18701;45.588;5.288;2023-03-14T08:58:31;10.90;99.90
32201;DHT22;18701;45.588;5.288;2023-03-14T09:00:57;10.90;99.90
32201;DHT22;18701;45.588;5.288;2023-03-14T09:03:24;10.80;99.90
32201;DHT22;18701;45.588;5.288;2023-03-14T09:05:50;10.90;99.90
32201;DHT22;18701;45.588;5.288;2023-03-14T09:08:16;10.90;99.90
32201;DHT22;18701;45.588;5.288;2023-03-14T09:10:42;11.00;99.90
32201;DHT22;18701;45.588;5.288;2023-03-14T09:13:07;11.10;99.90
32201;DHT22;18701;45.588;5.288;2023-03-14T09:15:33;11.10;99.90
32201;DHT22;18701;45.588;5.288;2023-03-14T09:17:59;11.10;99.90
32201;DHT22;18701;45.588;5.288;2023-03-14T09:20:25;11.10;99.90
32201;DHT22;18701;45.588;5.288;2023-03-14T09:22:50;11.20;99.90
32201;DHT22;18701;45.588;5.288;2023-03-14T09:25:16;11.30;99.90
32201;DHT22;18701;45.588;5.288;2023-03-14T09:27:42;11.20;99.90
32201;DHT22;18701;45.588;5.288;2023-03-14T09:30:08;11.20;99.90
32201;DHT22;18701;45.588;5.288;2023-03-14T09:32:34;11.20;99.90
32201;DHT22;18701;45.588;5.288;2023-03-14T09:34:59;11.10;99.90
32201;DHT22;18701;45.588;5.288;2023-03-14T09:37:25;11.10;99.90
32201;DHT22;18701;45.588;5.288;2023-03-14T09:39:51;11.10;99.90
32201;DHT22;18701;45.588;5.288;2023-03-14T09:42:21;11.10;99.90
32201;DHT22;18701;45.588;5.288;2023-03-14T09:45:03;11.30;99.90
32201;DHT22;18701;45.588;5.288;2023-03-14T09:47:31;11.10;99.90
32201;DHT22;18701;45.588;5.288;2023-03-14T09:49:59;11.30;99.90
32201;DHT22;18701;45.588;5.288;2023-03-14T09:52:36;11.50;99.90
32201;DHT22;18701;45.588;5.288;2023-03-14T09:55:06;11.60;99.90
32201;DHT22;18701;45.588;5.288;2023-03-14T09:57:34;11.40;99.90
32201;DHT22;18701;45.588;5.288;2023-03-14T10:00:05;11.30;99.90
32201;DHT22;18701;45.588;5.288;2023-03-14T10:02:41;11.30;99.90
32201;DHT22;18701;45.588;5.288;2023-03-14T10:05:15;11.30;99.90
32201;DHT22;18701;45.588;5.288;2023-03-14T10:07:40;11.30;99.90
32201;DHT22;18701;45.588;5.288;2023-03-14T10:10:13;11.20;99.90
32201;DHT22;18701;45.588;5.288;2023-03-14T10:12:39;11.20;99.90
32201;DHT22;18701;45.588;5.288;2023-03-14T10:15:11;10.80;99.90
32201;DHT22;18701;45.588;5.288;2023-03-14T10:17:42;10.10;99.90
32201;DHT22;18701;45.588;5.288;2023-03-14T10:20:33;9.50;99.90
32201;DHT22;18701;45.588;5.288;2023-03-14T10:23:17;9.40;99.90
32201;DHT22;18701;45.588;5.288;2023-03-14T10:25:53;9.40;99.90
32201;DHT22;18701;45.588;5.288;2023-03-14T10:28:26;9.70;99.90
32201;DHT22;18701;45.588;5.288;2023-03-14T10:30:52;9.70;99.90
32201;DHT22;18701;45.588;5.288;2023-03-14T10:33:22;9.50;99.90
32201;DHT22;18701;45.588;5.288;2023-03-14T10:35:59;9.70;99.90
32201;DHT22;18701;45.588;5.288;2023-03-14T10:38:30;9.80;99.90
32201;DHT22;18701;45.588;5.288;2023-03-14T10:40:56;10.00;99.90
32201;DHT22;18701;45.588;5.288;2023-03-14T10:43:26;10.30;99.90
32201;DHT22;18701;45.588;5.288;2023-03-14T10:45:58;10.20;99.90
32201;DHT22;18701;45.588;5.288;2023-03-14T10:48:34;10.10;99.90
32201;DHT22;18701;45.588;5.288;2023-03-14T10:53:47;10.30;99.90
32201;DHT22;18701;45.588;5.288;2023-03-14T10:56:15;10.30;99.90
32201;DHT22;18701;45.588;5.288;2023-03-14T10:58:46;10.40;99.90
32201;DHT22;18701;45.588;5.288;2023-03-14T11:03:50;10.90;99.90
32201;DHT22;18701;45.588;5.288;2023-03-14T11:06:44;10.90;99.90
32201;DHT22;18701;45.588;5.288;2023-03-14T11:09:42;11.00;99.90
32201;DHT22;18701;45.588;5.288;2023-03-14T11:12:32;11.10;99.90
32201;DHT22;18701;45.588;5.288;2023-03-14T11:17:46;11.40;99.90
32201;DHT22;18701;45.588;5.288;2023-03-14T11:30:57;11.50;99.90
32201;DHT22;18701;45.588;5.288;2023-03-14T11:36:33;11.80;99.90
32201;DHT22;18701;45.588;5.288;2023-03-14T11:39:02;11.80;99.90
32201;DHT22;18701;45.588;5.288;2023-03-14T11:41:46;11.90;99.90
32201;DHT22;18701;45.588;5.288;2023-03-14T11:44:30;11.70;99.90
32201;DHT22;18701;45.588;5.288;2023-03-14T11:50:00;12.40;99.90
32201;DHT22;18701;45.588;5.288;2023-03-14T11:52:41;12.40;99.90
32201;DHT22;18701;45.588;5.288;2023-03-14T11:55:24;13.10;99.90
32201;DHT22;18701;45.588;5.288;2023-03-14T11:57:55;12.90;99.90
32201;DHT22;18701;45.588;5.288;2023-03-14T12:00:25;12.70;99.90
32201;DHT22;18701;45.588;5.288;2023-03-14T12:10:43;13.40;99.90
32201;DHT22;18701;45.588;5.288;2023-03-14T12:13:11;14.20;99.90
32201;DHT22;18701;45.588;5.288;2023-03-14T12:15:41;14.90;99.90
32201;DHT22;18701;45.588;5.288;2023-03-14T12:20:55;15.70;99.90
32201;DHT22;18701;45.588;5.288;2023-03-14T12:23:22;15.10;99.90
32201;DHT22;18701;45.588;5.288;2023-03-14T12:26:27;14.90;99.90
32201;DHT22;18701;45.588;5.288;2023-03-14T12:29:11;14.50;99.90
32201;DHT22;18701;45.588;5.288;2023-03-14T12:31:45;14.30;99.90
32201;DHT22;18701;45.588;5.288;2023-03-14T12:39:53;15.80;99.90
32201;DHT22;18701;45.588;5.288;2023-03-14T12:45:21;16.00;99.90
32201;DHT22;18701;45.588;5.288;2023-03-14T12:47:53;16.50;99.90
32201;DHT22;18701;45.588;5.288;2023-03-14T12:50:33;16.20;99.90
32201;DHT22;18701;45.588;5.288;2023-03-14T12:55:56;16.10;99.90
32201;DHT22;18701;45.588;5.288;2023-03-14T12:58:38;16.40;99.90
32201;DHT22;18701;45.588;5.288;2023-03-14T13:01:16;16.70;99.90
32201;DHT22;18701;45.588;5.288;2023-03-14T13:03:55;16.90;99.90
32201;DHT22;18701;45.588;5.288;2023-03-14T13:11:52;15.20;99.90
32201;DHT22;18701;45.588;5.288;2023-03-14T13:14:18;14.90;99.90
32201;DHT22;18701;45.588;5.288;2023-03-14T13:16:46;14.60;99.90
32201;DHT22;18701;45.588;5.288;2023-03-14T13:19:27;14.60;99.90
32201;DHT22;18701;45.588;5.288;2023-03-14T13:22:06;14.10;99.90
32201;DHT22;18701;45.588;5.288;2023-03-14T13:24:34;13.90;99.90
32201;DHT22;18701;45.588;5.288;2023-03-14T13:27:00;13.40;99.90
32201;DHT22;18701;45.588;5.288;2023-03-14T13:29:32;12.80;99.90
32201;DHT22;18701;45.588;5.288;2023-03-14T13:32:15;12.00;99.90
32201;DHT22;18701;45.588;5.288;2023-03-14T13:34:41;11.70;99.90
32201;DHT22;18701;45.588;5.288;2023-03-14T13:37:21;12.50;99.90
32201;DHT22;18701;45.588;5.288;2023-03-14T13:39:55;13.50;99.90
32201;DHT22;18701;45.588;5.288;2023-03-14T13:42:25;15.50;99.90
32201;DHT22;18701;45.588;5.288;2023-03-14T13:44:56;16.40;99.90
32201;DHT22;18701;45.588;5.288;2023-03-14T13:47:24;17.50;99.90
32201;DHT22;18701;45.588;5.288;2023-03-14T13:49:50;18.60;99.90
32201;DHT22;18701;45.588;5.288;2023-03-14T13:52:37;18.80;99.90
32201;DHT22;18701;45.588;5.288;2023-03-14T13:55:04;17.00;99.90
32201;DHT22;18701;45.588;5.288;2023-03-14T13:57:51;15.00;99.90
32201;DHT22;18701;45.588;5.288;2023-03-14T14:00:22;11.80;99.90
32201;DHT22;18701;45.588;5.288;2023-03-14T14:02:56;11.50;99.90
32201;DHT22;18701;45.588;5.288;2023-03-14T14:05:25;10.60;99.90
32201;DHT22;18701;45.588;5.288;2023-03-14T14:07:51;10.60;99.90
32201;DHT22;18701;45.588;5.288;2023-03-14T14:10:18;11.10;99.90
32201;DHT22;18701;45.588;5.288;2023-03-14T14:15:14;11.00;99.90
32201;DHT22;18701;45.588;5.288;2023-03-14T14:17:44;11.70;99.90
32201;DHT22;18701;45.588;5.288;2023-03-14T14:20:35;11.30;99.90
32201;DHT22;18701;45.588;5.288;2023-03-14T14:23:09;11.80;99.90
32201;DHT22;18701;45.588;5.288;2023-03-14T14:25:36;12.40;99.90
32201;DHT22;18701;45.588;5.288;2023-03-14T14:28:17;12.90;99.90
32201;DHT22;18701;45.588;5.288;2023-03-14T14:30:43;13.00;99.90
32201;DHT22;18701;45.588;5.288;2023-03-14T14:33:20;13.40;99.90
32201;DHT22;18701;45.588;5.288;2023-03-14T14:35:58;13.40;99.90
32201;DHT22;18701;45.588;5.288;2023-03-14T14:38:25;13.90;99.90
32201;DHT22;18701;45.588;5.288;2023-03-14T14:40:54;13.60;99.90
32201;DHT22;18701;45.588;5.288;2023-03-14T14:43:23;15.00;99.90
32201;DHT22;18701;45.588;5.288;2023-03-14T14:45:52;17.80;99.90
32201;DHT22;18701;45.588;5.288;2023-03-14T14:48:22;19.80;95.90
32201;DHT22;18701;45.588;5.288;2023-03-14T14:56:04;18.40;94.50
32201;DHT22;18701;45.588;5.288;2023-03-14T14:58:36;18.10;95.00
32201;DHT22;18701;45.588;5.288;2023-03-14T15:01:07;17.60;96.30
32201;DHT22;18701;45.588;5.288;2023-03-14T15:03:34;17.80;95.80
32201;DHT22;18701;45.588;5.288;2023-03-14T15:06:01;19.60;93.90
32201;DHT22;18701;45.588;5.288;2023-03-14T15:08:27;17.20;96.00
32201;DHT22;18701;45.588;5.288;2023-03-14T15:10:54;15.80;96.60
32201;DHT22;18701;45.588;5.288;2023-03-14T15:13:20;15.20;98.30
32201;DHT22;18701;45.588;5.288;2023-03-14T15:15:46;14.90;98.50
32201;DHT22;18701;45.588;5.288;2023-03-14T15:18:16;15.50;98.40
32201;DHT22;18701;45.588;5.288;2023-03-14T15:20:43;19.90;95.10
32201;DHT22;18701;45.588;5.288;2023-03-14T15:23:14;22.40;91.40
32201;DHT22;18701;45.588;5.288;2023-03-14T15:25:41;21.80;90.40
32201;DHT22;18701;45.588;5.288;2023-03-14T15:28:18;24.30;88.20
32201;DHT22;18701;45.588;5.288;2023-03-14T15:30:48;22.50;83.60
32201;DHT22;18701;45.588;5.288;2023-03-14T15:33:14;23.00;82.40
32201;DHT22;18701;45.588;5.288;2023-03-14T15:35:40;19.30;87.90
32201;DHT22;18701;45.588;5.288;2023-03-14T15:38:13;17.70;90.70
32201;DHT22;18701;45.588;5.288;2023-03-14T15:40:40;16.60;93.40
32201;DHT22;18701;45.588;5.288;2023-03-14T15:43:06;17.70;92.30
32201;DHT22;18701;45.588;5.288;2023-03-14T15:45:32;20.00;89.60
32201;DHT22;18701;45.588;5.288;2023-03-14T15:47:58;19.70;86.40
32201;DHT22;18701;45.588;5.288;2023-03-14T15:50:23;17.00;87.40
32201;DHT22;18701;45.588;5.288;2023-03-14T15:52:51;15.20;89.60
32201;DHT22;18701;45.588;5.288;2023-03-14T15:55:17;17.30;87.70
32201;DHT22;18701;45.588;5.288;2023-03-14T15:57:43;15.30;90.40
32201;DHT22;18701;45.588;5.288;2023-03-14T16:00:14;16.30;90.20
32201;DHT22;18701;45.588;5.288;2023-03-14T16:02:41;15.20;90.50
32201;DHT22;18701;45.588;5.288;2023-03-14T16:05:08;14.60;91.20
32201;DHT22;18701;45.588;5.288;2023-03-14T16:07:34;14.20;92.50
32201;DHT22;18701;45.588;5.288;2023-03-14T16:10:00;14.40;93.70
32201;DHT22;18701;45.588;5.288;2023-03-14T16:12:26;14.20;94.30
32201;DHT22;18701;45.588;5.288;2023-03-14T16:14:51;13.60;96.10
32201;DHT22;18701;45.588;5.288;2023-03-14T16:17:17;13.50;96.10
32201;DHT22;18701;45.588;5.288;2023-03-14T16:19:43;13.00;97.50
32201;DHT22;18701;45.588;5.288;2023-03-14T16:22:08;13.20;98.30
32201;DHT22;18701;45.588;5.288;2023-03-14T16:24:34;13.50;98.90
32201;DHT22;18701;45.588;5.288;2023-03-14T16:27:00;14.20;98.40
32201;DHT22;18701;45.588;5.288;2023-03-14T16:29:25;13.90;97.70
32201;DHT22;18701;45.588;5.288;2023-03-14T16:31:51;12.90;98.70
32201;DHT22;18701;45.588;5.288;2023-03-14T16:34:17;13.40;98.50
32201;DHT22;18701;45.588;5.288;2023-03-14T16:36:43;16.00;96.00
32201;DHT22;18701;45.588;5.288;2023-03-14T16:39:08;17.20;93.80
32201;DHT22;18701;45.588;5.288;2023-03-14T16:41:34;18.00;93.60
32201;DHT22;18701;45.588;5.288;2023-03-14T16:44:00;18.30;93.30
32201;DHT22;18701;45.588;5.288;2023-03-14T16:46:27;18.60;91.70
32201;DHT22;18701;45.588;5.288;2023-03-14T16:48:54;18.30;90.90